Time;durP1;ratioP1;P1;durP2;ratioP2;P2;SDS_P1;SDS_P2;PMS_P1;PMS_P2;Temp;Humidity;BMP_temperature;BMP_pressure;BME280_temperature;BME280_humidity;BME280_pressure;Samples;Min_cycle;Max_cycle;Signal;HPM_P1;HPM_P2
2022/07/06 00:01:17;;;;;;;1.92;1.77;;;17.70;96.00;;;;;;5032917;28;20232;-70
2022/07/06 00:03:43;;;;;;;3.08;2.13;;;17.70;96.30;;;;;;5015563;28;20668;-69
2022/07/06 00:06:08;;;;;;;2.85;2.00;;;17.70;96.60;;;;;;5033212;28;20210;-69
2022/07/06 00:08:34;;;;;;;3.38;2.00;;;17.70;96.80;;;;;;5031973;28;20229;-69
2022/07/06 00:11:00;;;;;;;3.53;1.92;;;17.70;97.30;;;;;;5032585;28;20681;-69
2022/07/06 00:13:26;;;;;;;2.80;1.80;;;17.70;97.40;;;;;;5031666;28;20634;-69
2022/07/06 00:15:51;;;;;;;2.33;1.92;;;17.60;97.60;;;;;;5032663;28;20665;-69
2022/07/06 00:18:17;;;;;;;2.00;1.88;;;17.60;97.70;;;;;;5032744;28;20216;-69
2022/07/06 00:20:42;;;;;;;2.83;2.10;;;17.50;98.10;;;;;;5032255;28;20178;-69
2022/07/06 00:23:08;;;;;;;3.17;1.73;;;17.50;98.20;;;;;;5032239;28;20174;-69
2022/07/06 00:25:33;;;;;;;2.03;1.92;;;17.40;98.30;;;;;;5032184;28;20583;-70
2022/07/06 00:27:59;;;;;;;2.88;2.00;;;17.40;98.50;;;;;;5032229;28;20229;-69
2022/07/06 00:30:25;;;;;;;3.53;2.10;;;17.40;98.80;;;;;;5031806;28;20174;-70
2022/07/06 00:32:50;;;;;;;2.00;1.90;;;17.30;98.80;;;;;;5032557;28;20247;-69
2022/07/06 00:35:16;;;;;;;2.88;2.05;;;17.20;99.00;;;;;;5014297;28;20185;-69
2022/07/06 00:37:41;;;;;;;3.55;2.03;;;17.20;99.30;;;;;;5032369;28;20637;-70
2022/07/06 00:40:07;;;;;;;2.42;1.80;;;17.20;99.40;;;;;;5013843;28;20236;-68
2022/07/06 00:42:44;;;;;;;2.15;1.95;;;17.20;99.80;;;;;;5032552;28;20170;-68
2022/07/06 00:45:11;;;;;;;3.20;2.03;;;17.10;99.90;;;;;;5031856;28;20264;-68
2022/07/06 00:47:38;;;;;;;3.90;2.10;;;17.10;99.90;;;;;;5031825;28;20189;-68
2022/07/06 00:50:14;;;;;;;2.35;2.15;;;17.10;99.90;;;;;;5031811;28;20236;-68
2022/07/06 00:52:41;;;;;;;2.90;2.13;;;17.00;99.90;;;;;;5032199;28;20191;-68
2022/07/06 00:55:07;;;;;;;2.55;2.05;;;17.00;99.90;;;;;;5031857;28;20192;-69
2022/07/06 00:57:32;;;;;;;2.30;2.10;;;17.00;99.90;;;;;;5032050;28;20182;-69
2022/07/06 00:59:59;;;;;;;3.17;2.15;;;17.00;99.90;;;;;;5030826;28;20181;-68
2022/07/06 01:02:24;;;;;;;3.35;2.20;;;16.90;99.90;;;;;;5031518;28;20205;-68
2022/07/06 01:04:50;;;;;;;2.47;2.00;;;16.90;99.90;;;;;;5031209;28;20621;-68
2022/07/06 01:07:16;;;;;;;2.30;2.10;;;16.90;99.90;;;;;;5031372;28;20189;-68
2022/07/06 01:09:42;;;;;;;2.30;2.10;;;16.90;99.90;;;;;;5031583;28;20218;-68
2022/07/06 01:12:08;;;;;;;2.30;2.10;;;16.90;99.90;;;;;;5031580;28;20188;-68
2022/07/06 01:14:35;;;;;;;3.22;1.92;;;16.90;99.90;;;;;;5031300;28;20189;-68
2022/07/06 01:17:01;;;;;;;4.95;1.92;;;16.80;99.90;;;;;;5021627;28;20171;-68
2022/07/06 01:19:26;;;;;;;3.75;2.05;;;16.80;99.90;;;;;;5008179;28;20748;-68
2022/07/06 01:21:52;;;;;;;2.33;2.10;;;16.80;99.90;;;;;;5031064;28;20256;-68
2022/07/06 01:24:17;;;;;;;2.42;1.98;;;16.80;99.90;;;;;;5031427;28;20171;-68
2022/07/06 01:26:43;;;;;;;2.55;2.08;;;16.80;99.90;;;;;;5013724;28;20542;-68
2022/07/06 01:29:09;;;;;;;6.22;2.90;;;16.80;99.90;;;;;;5030970;28;20669;-68
2022/07/06 01:31:34;;;;;;;2.92;2.10;;;16.80;99.90;;;;;;5031218;28;20190;-68
2022/07/06 01:34:00;;;;;;;2.60;2.30;;;16.80;99.90;;;;;;5031143;28;20201;-68
2022/07/06 01:36:25;;;;;;;2.40;2.20;;;16.80;99.90;;;;;;5030741;28;20170;-67
2022/07/06 01:38:52;;;;;;;2.42;2.20;;;16.80;99.90;;;;;;5030883;28;20699;-68
2022/07/06 01:41:19;;;;;;;3.08;2.20;;;16.70;99.90;;;;;;5030317;28;20186;-68
2022/07/06 01:43:45;;;;;;;2.30;2.10;;;16.70;99.90;;;;;;5031559;28;20214;-68
2022/07/06 01:46:11;;;;;;;2.35;1.77;;;16.60;99.90;;;;;;5031213;28;20175;-68
2022/07/06 01:48:37;;;;;;;2.35;2.00;;;16.60;99.90;;;;;;5031032;28;20216;-68
2022/07/06 01:51:04;;;;;;;2.50;2.20;;;16.40;99.90;;;;;;5030530;28;20178;-68
2022/07/06 01:53:29;;;;;;;3.58;1.98;;;16.40;99.90;;;;;;5031134;28;20197;-68
2022/07/06 01:55:55;;;;;;;3.53;2.30;;;16.40;99.90;;;;;;5031051;28;20190;-68
2022/07/06 01:58:21;;;;;;;2.10;1.90;;;16.40;99.90;;;;;;5031276;28;20185;-68
2022/07/06 02:00:46;;;;;;;2.53;2.33;;;16.40;99.90;;;;;;5012601;28;20186;-68
2022/07/06 02:03:12;;;;;;;3.50;2.25;;;16.40;99.90;;;;;;5031080;28;20217;-67
2022/07/06 02:05:37;;;;;;;2.60;2.30;;;16.30;99.90;;;;;;5030212;28;20266;-68
2022/07/06 02:08:03;;;;;;;2.58;2.22;;;16.30;99.90;;;;;;5031121;28;20202;-68
2022/07/06 02:10:28;;;;;;;3.15;2.40;;;16.30;99.90;;;;;;5030833;28;20293;-68
2022/07/06 02:12:54;;;;;;;3.13;2.30;;;16.30;99.90;;;;;;5030926;28;20178;-68
2022/07/06 02:15:19;;;;;;;2.08;1.95;;;16.20;99.90;;;;;;5029991;28;20178;-68
2022/07/06 02:17:45;;;;;;;4.50;2.25;;;16.10;99.90;;;;;;5033784;28;20672;-67
2022/07/06 02:20:11;;;;;;;2.30;2.10;;;16.20;99.90;;;;;;5034764;28;20665;-68
2022/07/06 02:22:36;;;;;;;2.80;2.60;;;16.20;99.90;;;;;;5034349;28;20204;-67
2022/07/06 02:25:02;;;;;;;6.72;3.30;;;16.10;99.90;;;;;;5034803;28;20182;-68
2022/07/06 02:27:28;;;;;;;3.03;2.58;;;16.10;99.90;;;;;;5034225;28;20178;-68
2022/07/06 02:29:53;;;;;;;2.80;2.30;;;16.00;99.90;;;;;;5034808;28;20216;-67
2022/07/06 02:32:19;;;;;;;4.20;2.40;;;16.00;99.90;;;;;;5034448;28;20174;-68
2022/07/06 02:34:44;;;;;;;3.70;2.38;;;15.90;99.90;;;;;;5017185;28;20182;-68
2022/07/06 02:37:10;;;;;;;2.97;2.20;;;15.90;99.90;;;;;;5034942;28;20185;-68
2022/07/06 02:39:36;;;;;;;3.65;2.60;;;15.90;99.90;;;;;;5016255;28;20316;-68
2022/07/06 02:42:01;;;;;;;2.47;2.22;;;15.90;99.90;;;;;;5034019;28;20197;-68
2022/07/06 02:44:27;;;;;;;3.55;2.67;;;15.90;99.90;;;;;;5016785;28;20177;-68
2022/07/06 02:46:52;;;;;;;3.47;2.63;;;16.00;99.90;;;;;;5032904;28;20189;-67
2022/07/06 02:49:18;;;;;;;3.05;2.78;;;16.00;99.90;;;;;;5034649;28;20214;-68
2022/07/06 02:51:43;;;;;;;4.47;2.53;;;16.00;99.90;;;;;;5034219;28;20210;-68
2022/07/06 02:54:09;;;;;;;3.20;2.42;;;16.00;99.90;;;;;;5034556;28;20309;-68
2022/07/06 02:56:34;;;;;;;4.22;3.08;;;16.00;99.90;;;;;;5034101;28;20645;-68
2022/07/06 02:59:00;;;;;;;4.25;2.67;;;16.00;99.90;;;;;;5034138;28;20193;-68
2022/07/06 03:01:26;;;;;;;7.45;3.13;;;15.90;99.90;;;;;;5033494;28;20181;-68
2022/07/06 03:03:51;;;;;;;4.07;2.70;;;15.90;99.90;;;;;;5034391;28;20182;-68
2022/07/06 03:06:17;;;;;;;4.50;2.75;;;15.80;99.90;;;;;;5033639;28;20193;-68
2022/07/06 03:08:42;;;;;;;3.15;2.67;;;15.70;99.90;;;;;;5034425;28;20210;-68
2022/07/06 03:11:08;;;;;;;5.32;2.78;;;15.60;99.90;;;;;;5033898;28;20198;-68
2022/07/06 03:13:34;;;;;;;3.75;2.58;;;15.70;99.90;;;;;;5033739;28;20186;-68
2022/07/06 03:16:00;;;;;;;4.90;3.03;;;15.60;99.90;;;;;;5033666;28;20228;-68
2022/07/06 03:18:25;;;;;;;4.35;3.10;;;15.60;99.90;;;;;;5034103;28;20657;-68
2022/07/06 03:20:51;;;;;;;3.92;2.88;;;15.70;99.90;;;;;;5033920;28;20621;-67
2022/07/06 03:23:16;;;;;;;2.63;2.42;;;15.70;99.90;;;;;;5033461;28;20185;-68
2022/07/06 03:25:42;;;;;;;2.65;2.42;;;15.60;99.90;;;;;;5020937;28;20178;-68
2022/07/06 03:28:07;;;;;;;3.65;3.00;;;15.70;99.90;;;;;;5033595;28;20202;-68
2022/07/06 03:30:33;;;;;;;2.88;2.50;;;15.60;99.90;;;;;;5033403;28;20178;-68
2022/07/06 03:32:58;;;;;;;4.47;2.80;;;15.60;99.90;;;;;;5032869;28;20185;-68
2022/07/06 03:35:24;;;;;;;3.95;2.72;;;15.60;99.90;;;;;;5033300;28;20186;-68
2022/07/06 03:37:50;;;;;;;4.45;3.08;;;15.60;99.90;;;;;;5015598;28;20186;-68
2022/07/06 03:40:15;;;;;;;5.15;2.88;;;15.70;99.90;;;;;;5033513;28;20237;-68
2022/07/06 03:42:41;;;;;;;3.90;2.70;;;15.70;99.90;;;;;;5033364;28;20193;-68
2022/07/06 03:45:07;;;;;;;5.75;3.10;;;15.70;99.90;;;;;;5033691;28;20182;-68
2022/07/06 03:47:33;;;;;;;5.18;3.13;;;15.60;99.90;;;;;;5032797;28;20178;-69
2022/07/06 03:49:59;;;;;;;3.58;2.80;;;15.60;99.90;;;;;;5032761;28;20297;-69
2022/07/06 03:52:24;;;;;;;5.90;3.10;;;15.70;99.90;;;;;;5032565;28;20175;-70
2022/07/06 03:54:50;;;;;;;4.50;3.05;;;15.70;99.90;;;;;;5014336;28;20193;-68
2022/07/06 03:57:16;;;;;;;3.45;2.90;;;15.70;99.90;;;;;;5032746;28;20192;-68
2022/07/06 03:59:42;;;;;;;8.98;2.90;;;15.70;99.90;;;;;;5032227;28;20174;-69
2022/07/06 04:02:07;;;;;;;3.17;2.92;;;15.70;99.90;;;;;;5031549;28;20719;-69
2022/07/06 04:04:36;;;;;;;3.70;2.92;;;15.70;99.90;;;;;;5032061;28;20235;-68
2022/07/06 04:07:01;;;;;;;8.90;2.92;;;15.80;99.90;;;;;;5014983;28;20665;-69
2022/07/06 04:09:27;;;;;;;4.70;3.05;;;15.80;99.90;;;;;;5032986;28;20264;-68
2022/07/06 04:11:52;;;;;;;5.13;3.20;;;15.90;99.90;;;;;;5031858;28;20182;-67
2022/07/06 04:14:18;;;;;;;5.40;3.10;;;15.80;99.90;;;;;;5027760;28;20186;-72
2022/07/06 04:16:44;;;;;;;3.28;2.95;;;15.80;99.90;;;;;;5013161;28;20209;-72
2022/07/06 04:19:09;;;;;;;3.20;2.92;;;15.80;99.90;;;;;;5032413;28;20198;-67
2022/07/06 04:21:35;;;;;;;3.45;2.92;;;15.80;99.90;;;;;;5032522;28;20253;-69
2022/07/06 04:24:00;;;;;;;5.18;2.97;;;15.80;99.90;;;;;;5032210;28;20196;-67
2022/07/06 04:26:26;;;;;;;3.78;2.63;;;16.00;99.90;;;;;;5030561;28;20185;-74
2022/07/06 04:28:52;;;;;;;5.43;3.28;;;16.30;99.90;;;;;;5006831;28;20210;-66
2022/07/06 04:31:17;;;;;;;4.60;3.17;;;16.60;99.90;;;;;;5030646;28;20704;-68
2022/07/06 04:33:43;;;;;;;5.97;2.70;;;16.90;99.90;;;;;;5032225;28;20676;-68
2022/07/06 04:36:09;;;;;;;3.45;2.47;;;17.20;99.90;;;;;;5031579;28;20178;-70
2022/07/06 04:38:35;;;;;;;4.18;2.85;;;17.40;99.90;;;;;;5032603;28;20301;-69
2022/07/06 04:41:00;;;;;;;3.15;2.72;;;17.50;99.90;;;;;;5032107;28;20281;-69
2022/07/06 04:43:26;;;;;;;2.85;2.65;;;17.60;99.90;;;;;;5032584;28;20185;-69
2022/07/06 04:45:52;;;;;;;4.38;2.53;;;17.60;99.90;;;;;;5030927;28;20194;-69
2022/07/06 04:48:17;;;;;;;2.70;2.50;;;17.60;99.90;;;;;;5032210;28;20213;-70
2022/07/06 04:50:43;;;;;;;4.07;2.72;;;17.60;99.90;;;;;;5032028;28;20198;-70
2022/07/06 04:53:09;;;;;;;3.22;2.70;;;17.90;99.90;;;;;;5032279;28;20261;-69
2022/07/06 04:55:34;;;;;;;3.00;2.70;;;18.30;99.90;;;;;;5032156;28;20300;-69
2022/07/06 04:58:00;;;;;;;3.17;2.33;;;18.30;99.90;;;;;;5032331;28;20189;-69
2022/07/06 05:00:25;;;;;;;3.92;2.80;;;18.40;99.90;;;;;;5032105;28;20190;-69
2022/07/06 05:02:51;;;;;;;3.45;2.50;;;18.40;99.90;;;;;;5032180;28;20186;-69
2022/07/06 05:05:17;;;;;;;2.97;2.67;;;18.40;99.90;;;;;;5032250;28;20649;-69
2022/07/06 05:07:42;;;;;;;3.95;2.60;;;18.40;99.90;;;;;;5032223;28;20523;-69
2022/07/06 05:10:10;;;;;;;3.72;2.13;;;18.40;99.90;;;;;;5032028;28;20217;-69
2022/07/06 05:12:35;;;;;;;4.35;2.53;;;18.50;99.90;;;;;;5031981;28;20317;-69
2022/07/06 05:15:01;;;;;;;5.15;2.30;;;18.80;99.90;;;;;;5031756;28;20629;-69
2022/07/06 05:17:26;;;;;;;2.50;2.30;;;18.90;99.70;;;;;;5032013;28;20528;-69
2022/07/06 05:19:52;;;;;;;4.32;2.40;;;19.10;99.30;;;;;;5031728;28;20182;-69
2022/07/06 05:22:18;;;;;;;3.65;2.45;;;19.60;98.90;;;;;;5031881;28;20542;-69
2022/07/06 05:24:44;;;;;;;5.63;2.05;;;19.80;98.30;;;;;;5031808;28;20174;-69
2022/07/06 05:27:09;;;;;;;3.17;2.80;;;20.30;97.50;;;;;;5031949;28;20185;-69
2022/07/06 05:29:35;;;;;;;5.10;2.75;;;20.60;97.30;;;;;;5031593;28;20224;-69
2022/07/06 05:32:01;;;;;;;4.15;2.30;;;21.10;95.20;;;;;;5031872;28;20170;-69
2022/07/06 05:34:26;;;;;;;5.68;2.13;;;21.40;94.80;;;;;;5031849;28;20178;-70
2022/07/06 05:36:52;;;;;;;3.53;2.20;;;21.50;93.70;;;;;;5031842;28;20530;-70
2022/07/06 05:39:19;;;;;;;2.85;2.20;;;21.30;93.30;;;;;;5031907;28;20297;-69
2022/07/06 05:41:45;;;;;;;2.78;2.10;;;21.20;93.30;;;;;;5032056;28;20186;-69
2022/07/06 05:44:11;;;;;;;5.22;2.00;;;21.10;93.40;;;;;;5031794;28;20193;-69
2022/07/06 05:46:37;;;;;;;2.17;1.98;;;21.20;93.40;;;;;;5031826;28;20503;-70
2022/07/06 05:51:46;;;;;;;2.78;2.13;;;21.20;93.10;;;;;;5031292;28;20185;-69
2022/07/06 05:54:12;;;;;;;4.20;2.40;;;21.60;92.20;;;;;;5031610;28;20189;-69
2022/07/06 05:56:37;;;;;;;2.15;1.83;;;21.80;91.70;;;;;;5031571;28;20668;-69
2022/07/06 05:59:03;;;;;;;3.83;1.88;;;21.80;90.90;;;;;;5031830;28;20182;-69
2022/07/06 06:01:28;;;;;;;4.63;2.25;;;21.90;90.90;;;;;;5031684;28;20177;-69
2022/07/06 06:03:54;;;;;;;4.78;1.90;;;22.00;90.50;;;;;;5031483;28;20193;-69
2022/07/06 06:06:19;;;;;;;3.78;2.08;;;22.20;90.40;;;;;;5031448;28;20182;-69
2022/07/06 06:08:45;;;;;;;5.07;2.00;;;22.40;89.00;;;;;;5013963;28;20260;-69
2022/07/06 06:11:10;;;;;;;2.13;1.70;;;22.50;88.50;;;;;;5013868;28;20633;-69
2022/07/06 06:13:36;;;;;;;2.70;1.70;;;22.60;88.00;;;;;;5031377;28;20269;-68
2022/07/06 06:16:01;;;;;;;1.95;1.77;;;22.70;86.80;;;;;;5031549;28;20265;-69
2022/07/06 06:18:27;;;;;;;2.35;1.65;;;22.70;85.90;;;;;;5031404;28;20174;-69
2022/07/06 06:20:53;;;;;;;2.85;1.90;;;22.70;86.30;;;;;;5031489;28;20186;-70
2022/07/06 06:23:18;;;;;;;3.85;1.65;;;22.60;86.20;;;;;;5031512;28;20197;-69
2022/07/06 06:25:44;;;;;;;1.85;1.67;;;22.60;86.10;;;;;;5031437;28;20269;-70
2022/07/06 06:28:11;;;;;;;3.58;2.08;;;22.50;85.60;;;;;;5031455;28;20215;-70
2022/07/06 06:30:38;;;;;;;3.53;1.85;;;22.90;86.60;;;;;;5031478;28;20687;-69
2022/07/06 06:33:07;;;;;;;2.00;1.80;;;23.60;84.70;;;;;;5031528;28;20384;-70
2022/07/06 06:35:33;;;;;;;3.28;1.95;;;24.70;82.10;;;;;;5031397;28;20170;-70
2022/07/06 06:37:58;;;;;;;6.18;1.55;;;25.50;77.80;;;;;;5031489;28;20649;-69
2022/07/06 06:40:24;;;;;;;4.10;2.60;;;25.50;75.90;;;;;;5031270;28;20229;-69
2022/07/06 06:42:49;;;;;;;5.13;2.00;;;25.70;74.90;;;;;;5031391;28;20224;-69
2022/07/06 06:45:15;;;;;;;1.75;1.40;;;26.60;72.40;;;;;;5031285;28;20183;-69
2022/07/06 06:47:40;;;;;;;2.63;1.30;;;27.50;69.20;;;;;;5031245;28;20185;-69
2022/07/06 06:50:06;;;;;;;3.05;1.80;;;27.90;65.60;;;;;;5031346;28;20276;-69
2022/07/06 06:52:32;;;;;;;2.35;1.30;;;27.90;64.10;;;;;;5031103;28;20274;-69
2022/07/06 06:54:57;;;;;;;2.40;1.50;;;28.10;63.10;;;;;;5031360;28;20553;-69
2022/07/06 06:57:23;;;;;;;3.85;1.40;;;28.30;62.30;;;;;;5031108;28;20603;-69
2022/07/06 06:59:49;;;;;;;3.00;1.38;;;28.70;62.00;;;;;;5031138;28;20228;-69
2022/07/06 07:02:14;;;;;;;2.85;1.70;;;29.30;60.70;;;;;;5031155;28;20178;-70
2022/07/06 07:04:40;;;;;;;2.85;1.52;;;29.50;58.10;;;;;;5034400;28;20178;-70
2022/07/06 07:07:05;;;;;;;2.53;1.70;;;29.10;57.80;;;;;;5034824;28;20196;-69
2022/07/06 07:09:31;;;;;;;5.03;1.98;;;29.20;57.50;;;;;;5034594;28;20801;-69
2022/07/06 07:11:57;;;;;;;6.53;1.90;;;29.30;56.60;;;;;;5034732;28;20182;-69
2022/07/06 07:14:23;;;;;;;5.25;1.70;;;29.50;56.40;;;;;;5034490;28;20210;-69
2022/07/06 07:16:48;;;;;;;2.40;1.30;;;29.60;55.70;;;;;;5034643;28;20216;-69
2022/07/06 07:19:14;;;;;;;4.03;1.45;;;30.00;55.60;;;;;;5034317;28;20281;-69
2022/07/06 07:21:39;;;;;;;3.30;1.50;;;30.70;54.80;;;;;;5034561;28;20189;-70
2022/07/06 07:24:07;;;;;;;3.15;1.60;;;31.10;52.70;;;;;;5034506;28;20200;-69
2022/07/06 07:26:32;;;;;;;2.72;1.50;;;30.80;52.50;;;;;;5034215;28;20186;-69
2022/07/06 07:28:58;;;;;;;5.53;1.60;;;30.60;53.60;;;;;;5034349;28;21004;-70
2022/07/06 07:31:23;;;;;;;2.97;1.20;;;30.70;53.40;;;;;;5034359;28;20637;-70
2022/07/06 07:33:49;;;;;;;1.65;1.45;;;31.20;52.80;;;;;;5034337;28;20178;-69
2022/07/06 07:36:14;;;;;;;3.80;1.50;;;31.40;51.50;;;;;;5034184;28;20182;-69
2022/07/06 07:38:40;;;;;;;4.07;1.60;;;31.90;50.50;;;;;;5033940;28;20241;-69
2022/07/06 07:41:06;;;;;;;3.95;1.65;;;32.10;49.90;;;;;;5034254;28;20178;-69
2022/07/06 07:43:31;;;;;;;5.57;1.58;;;32.00;49.10;;;;;;5033957;28;20220;-69
2022/07/06 07:45:57;;;;;;;5.47;1.73;;;31.90;49.90;;;;;;5034200;28;20170;-70
2022/07/06 07:48:22;;;;;;;2.28;1.42;;;31.70;49.60;;;;;;5033810;28;20198;-70
2022/07/06 07:50:48;;;;;;;2.78;1.70;;;31.80;50.00;;;;;;5034014;28;20205;-70
2022/07/06 07:53:13;;;;;;;1.75;1.60;;;31.90;50.10;;;;;;5033861;28;20220;-70
2022/07/06 07:55:39;;;;;;;3.88;1.50;;;31.90;50.20;;;;;;5033905;28;20178;-70
2022/07/06 07:58:05;;;;;;;4.57;1.48;;;31.80;48.80;;;;;;5033744;28;20633;-70
2022/07/06 08:00:30;;;;;;;9.13;3.50;;;31.90;49.50;;;;;;5033649;28;20572;-71
2022/07/06 08:02:56;;;;;;;3.13;1.90;;;31.70;49.20;;;;;;5015762;28;20347;-71
2022/07/06 08:05:21;;;;;;;4.30;1.48;;;31.30;50.00;;;;;;5033590;28;20185;-71
2022/07/06 08:07:47;;;;;;;1.60;1.50;;;31.40;49.40;;;;;;5033721;28;20381;-70
2022/07/06 08:10:13;;;;;;;6.88;1.80;;;31.70;49.30;;;;;;5033491;28;20209;-71
2022/07/06 08:12:38;;;;;;;3.15;1.70;;;32.20;49.70;;;;;;5033560;28;20201;-70
2022/07/06 08:15:05;;;;;;;4.82;1.80;;;32.30;48.70;;;;;;5032747;28;20541;-70
2022/07/06 08:17:30;;;;;;;2.35;1.67;;;32.40;48.60;;;;;;5033473;28;20181;-70
2022/07/06 08:19:56;;;;;;;2.63;1.60;;;32.40;48.10;;;;;;5033422;28;20182;-70
2022/07/06 08:22:22;;;;;;;1.95;1.70;;;32.20;48.50;;;;;;5033218;28;20541;-70
2022/07/06 08:24:48;;;;;;;5.13;1.92;;;32.00;48.90;;;;;;5033402;28;20186;-70
2022/07/06 08:27:13;;;;;;;2.05;1.55;;;31.70;49.60;;;;;;5033169;28;20174;-70
2022/07/06 08:29:39;;;;;;;5.47;3.08;;;31.10;50.00;;;;;;5033341;28;20304;-70
2022/07/06 08:32:05;;;;;;;6.15;2.70;;;31.10;50.80;;;;;;5033303;28;20178;-70
2022/07/06 08:34:30;;;;;;;8.43;4.40;;;31.40;50.60;;;;;;5033075;28;20641;-70
2022/07/06 08:36:56;;;;;;;5.03;2.42;;;31.60;50.90;;;;;;5033012;28;20166;-70
2022/07/06 08:39:21;;;;;;;5.22;2.33;;;31.90;50.30;;;;;;5032896;28;20225;-70
2022/07/06 08:41:48;;;;;;;4.35;1.77;;;31.90;49.30;;;;;;5033128;28;20178;-70
2022/07/06 08:44:15;;;;;;;4.43;1.67;;;31.40;49.10;;;;;;5032975;28;20210;-70
2022/07/06 08:46:41;;;;;;;4.38;1.73;;;31.00;50.60;;;;;;5033083;28;20702;-71
2022/07/06 08:49:08;;;;;;;2.58;1.50;;;30.70;51.30;;;;;;5033123;28;20214;-70
2022/07/06 08:51:37;;;;;;;3.70;1.90;;;30.80;51.60;;;;;;5032855;28;20671;-70
2022/07/06 08:54:04;;;;;;;3.50;1.60;;;31.10;50.00;;;;;;5032761;28;20273;-70
2022/07/06 08:56:30;;;;;;;5.38;2.10;;;31.30;49.90;;;;;;5031286;28;20711;-70
2022/07/06 08:58:56;;;;;;;2.90;1.70;;;31.40;49.40;;;;;;5032547;28;20334;-70
2022/07/06 09:01:22;;;;;;;5.88;2.10;;;31.50;50.10;;;;;;5032614;28;20213;-70
2022/07/06 09:03:50;;;;;;;3.53;1.63;;;31.40;48.80;;;;;;5032409;28;20579;-70
2022/07/06 09:06:24;;;;;;;12.18;5.82;;;31.40;49.30;;;;;;5032484;28;20178;-70
2022/07/06 09:08:52;;;;;;;2.72;1.90;;;31.40;49.00;;;;;;5032570;28;20208;-69
2022/07/06 09:11:18;;;;;;;3.17;1.90;;;31.30;49.30;;;;;;5032444;28;20277;-70
2022/07/06 09:13:44;;;;;;;4.30;2.35;;;31.30;50.50;;;;;;5032401;28;20324;-70
2022/07/06 09:16:14;;;;;;;3.58;1.83;;;31.30;49.60;;;;;;5032515;28;20178;-71
2022/07/06 09:18:42;;;;;;;5.10;1.80;;;31.10;50.30;;;;;;5032304;28;20577;-70
2022/07/06 09:21:08;;;;;;;3.08;1.80;;;30.90;49.60;;;;;;5032366;28;20537;-70
2022/07/06 09:23:34;;;;;;;3.42;2.10;;;30.70;50.30;;;;;;5032046;28;20174;-70
2022/07/06 09:26:03;;;;;;;2.20;1.60;;;30.70;49.50;;;;;;5032176;28;20649;-70
2022/07/06 09:28:45;;;;;;;4.32;1.83;;;30.50;50.10;;;;;;5032060;28;20208;-70
2022/07/06 09:31:11;;;;;;;5.18;1.92;;;30.50;50.90;;;;;;5032161;28;20186;-70
2022/07/06 09:33:37;;;;;;;2.90;2.22;;;30.60;50.90;;;;;;5032092;28;20178;-69
2022/07/06 09:36:05;;;;;;;3.58;2.03;;;30.60;50.10;;;;;;5032212;28;20205;-70
2022/07/06 09:38:31;;;;;;;3.95;1.90;;;30.70;49.90;;;;;;5031900;28;20303;-70
2022/07/06 09:40:57;;;;;;;3.63;1.70;;;30.90;50.10;;;;;;5032092;28;20269;-71
2022/07/06 09:43:24;;;;;;;5.30;2.20;;;30.80;49.80;;;;;;5032089;28;20257;-71
2022/07/06 09:45:51;;;;;;;5.90;2.30;;;30.60;50.20;;;;;;5032197;28;20555;-70
2022/07/06 09:48:18;;;;;;;8.95;2.25;;;30.50;50.80;;;;;;5031860;28;20182;-71
2022/07/06 09:50:52;;;;;;;2.95;2.10;;;30.60;50.90;;;;;;5031858;28;20193;-70
2022/07/06 09:53:21;;;;;;;5.97;2.17;;;30.70;50.60;;;;;;5031833;28;20211;-70
2022/07/06 09:55:48;;;;;;;3.42;1.90;;;30.60;50.50;;;;;;5031973;28;20212;-70
2022/07/06 09:58:14;;;;;;;3.72;2.25;;;30.50;50.60;;;;;;5031622;28;20193;-70
2022/07/06 10:00:41;;;;;;;3.70;2.00;;;30.40;50.40;;;;;;5031872;28;20189;-70
2022/07/06 10:03:08;;;;;;;8.88;2.50;;;30.30;50.90;;;;;;5031677;28;20665;-70
2022/07/06 10:05:37;;;;;;;2.72;2.30;;;30.30;49.80;;;;;;5031517;28;20197;-71
2022/07/06 10:08:05;;;;;;;5.22;2.13;;;29.90;50.90;;;;;;5031646;28;20185;-71
2022/07/06 10:10:32;;;;;;;2.97;1.92;;;29.80;51.90;;;;;;5031578;28;20225;-70
2022/07/06 10:12:59;;;;;;;4.45;2.50;;;29.80;53.00;;;;;;5013807;28;20206;-71
2022/07/06 10:15:26;;;;;;;2.97;2.47;;;29.90;51.70;;;;;;5031640;28;20186;-71
2022/07/06 10:17:53;;;;;;;4.50;2.10;;;30.10;50.90;;;;;;5031495;28;20186;-71
2022/07/06 10:20:20;;;;;;;5.00;2.33;;;30.40;52.00;;;;;;5031463;28;20676;-71
2022/07/06 10:22:49;;;;;;;9.43;2.40;;;30.60;50.90;;;;;;5031638;28;20587;-71
2022/07/06 10:25:18;;;;;;;5.38;2.40;;;30.70;51.20;;;;;;5031403;28;20185;-71
2022/07/06 10:27:48;;;;;;;2.78;2.20;;;30.80;49.80;;;;;;5031585;28;20189;-71
2022/07/06 10:30:15;;;;;;;4.20;2.30;;;30.60;49.90;;;;;;5031164;28;20222;-72
2022/07/06 10:32:43;;;;;;;6.35;2.20;;;30.50;51.20;;;;;;5031315;28;20186;-71
2022/07/06 10:35:09;;;;;;;6.43;2.40;;;30.70;50.90;;;;;;5031510;28;20192;-72
2022/07/06 10:37:34;;;;;;;3.90;2.22;;;30.30;50.40;;;;;;5031618;28;20174;-71
2022/07/06 10:42:51;;;;;;;5.30;2.30;;;30.40;50.30;;;;;;5035481;28;20197;-72
2022/07/06 10:45:46;;;;;;;3.30;2.05;;;30.70;51.20;;;;;;5035339;28;20178;-71
2022/07/06 10:48:11;;;;;;;3.95;2.30;;;30.90;49.40;;;;;;5035090;28;20182;-71
2022/07/06 10:50:38;;;;;;;7.80;2.42;;;30.60;49.00;;;;;;5035168;28;20178;-71
2022/07/06 10:53:10;;;;;;;3.42;2.10;;;30.40;49.20;;;;;;5035097;28;20206;-71
2022/07/06 10:55:38;;;;;;;4.95;2.22;;;30.50;49.90;;;;;;5034969;28;20223;-71
2022/07/06 10:58:05;;;;;;;3.58;2.28;;;30.20;49.20;;;;;;5035204;28;20206;-71
2022/07/06 11:00:51;;;;;;;3.35;2.10;;;29.90;50.50;;;;;;5034976;28;20182;-72
2022/07/06 11:03:33;;;;;;;5.15;2.15;;;29.60;51.20;;;;;;5034630;28;20668;-71
2022/07/06 11:06:01;;;;;;;4.22;2.30;;;29.80;50.30;;;;;;5034851;28;20177;-71
2022/07/06 11:08:44;;;;;;;3.90;2.08;;;29.80;49.60;;;;;;5034594;28;20213;-70
2022/07/06 11:11:18;;;;;;;4.53;1.80;;;29.70;49.90;;;;;;5017126;28;20645;-71
2022/07/06 11:13:52;;;;;;;2.35;1.83;;;29.80;50.50;;;;;;5016987;28;20237;-71
2022/07/06 11:16:18;;;;;;;4.20;2.30;;;30.10;50.50;;;;;;5034753;28;20184;-71
2022/07/06 11:19:00;;;;;;;3.85;2.28;;;30.20;49.20;;;;;;5034543;28;20633;-71
2022/07/06 11:21:51;;;;;;;5.82;1.95;;;30.00;49.40;;;;;;5034584;28;20261;-71
2022/07/06 11:24:22;;;;;;;5.72;1.92;;;29.50;49.40;;;;;;5034482;28;20672;-71
2022/07/06 11:26:49;;;;;;;3.78;1.80;;;29.20;50.10;;;;;;5034670;28;20516;-71
2022/07/06 11:29:17;;;;;;;1.85;1.52;;;28.90;50.20;;;;;;5034159;28;20217;-71
2022/07/06 11:31:46;;;;;;;3.83;1.50;;;28.90;50.80;;;;;;5034356;28;20319;-71
2022/07/06 11:34:17;;;;;;;2.40;1.90;;;29.20;51.60;;;;;;5034243;28;20178;-70
2022/07/06 11:36:43;;;;;;;3.85;1.70;;;29.70;51.00;;;;;;5034276;28;20193;-71
2022/07/06 11:39:08;;;;;;;5.60;1.90;;;30.00;48.60;;;;;;5034106;28;20222;-71
2022/07/06 11:41:35;;;;;;;2.20;1.63;;;29.90;48.10;;;;;;5033995;28;20182;-71
2022/07/06 11:44:00;;;;;;;2.53;1.63;;;29.60;49.20;;;;;;5034244;28;20185;-71
2022/07/06 11:46:27;;;;;;;2.05;1.40;;;29.70;49.00;;;;;;5034069;28;20182;-71
2022/07/06 11:48:59;;;;;;;2.40;1.60;;;29.90;48.70;;;;;;5033364;28;20225;-71
2022/07/06 11:51:27;;;;;;;1.80;1.58;;;30.00;48.60;;;;;;5033342;28;20178;-71
2022/07/06 11:53:55;;;;;;;5.20;1.70;;;29.80;48.30;;;;;;5033972;28;20201;-71
2022/07/06 11:56:25;;;;;;;2.55;1.73;;;29.60;48.60;;;;;;5033734;28;20582;-71
2022/07/06 11:58:52;;;;;;;3.13;1.40;;;29.40;48.00;;;;;;5033990;28;20190;-71
2022/07/06 12:01:17;;;;;;;4.80;2.15;;;29.10;49.10;;;;;;5033735;28;20285;-71
2022/07/06 12:03:44;;;;;;;5.38;1.60;;;29.20;48.40;;;;;;5033794;28;20178;-70
2022/07/06 12:06:15;;;;;;;2.55;1.55;;;28.90;49.20;;;;;;5033832;28;20248;-71
2022/07/06 12:08:52;;;;;;;4.07;1.60;;;28.90;49.60;;;;;;5033671;28;20606;-71
2022/07/06 12:11:29;;;;;;;1.45;1.33;;;28.70;49.60;;;;;;5033706;28;20636;-70
2022/07/06 12:14:00;;;;;;;1.60;1.42;;;28.90;50.80;;;;;;5033536;28;20182;-71
2022/07/06 12:16:36;;;;;;;2.55;1.67;;;29.20;49.50;;;;;;5033561;28;20170;-72
2022/07/06 12:19:05;;;;;;;5.32;1.40;;;29.60;48.80;;;;;;5033479;28;20186;-71
2022/07/06 12:21:33;;;;;;;2.88;1.50;;;29.90;48.20;;;;;;5033465;28;20213;-71
2022/07/06 12:23:59;;;;;;;1.40;1.25;;;30.20;47.70;;;;;;5015675;28;20186;-71
2022/07/06 12:26:28;;;;;;;3.45;1.55;;;30.30;46.50;;;;;;5033426;28;20175;-71
2022/07/06 12:29:05;;;;;;;1.95;1.45;;;30.30;47.00;;;;;;5033090;28;20210;-71
2022/07/06 12:31:39;;;;;;;4.07;2.40;;;30.00;46.40;;;;;;5033259;28;20186;-71
2022/07/06 12:34:13;;;;;;;6.95;4.00;;;29.70;46.50;;;;;;5033177;28;20178;-71
2022/07/06 12:36:46;;;;;;;4.43;2.35;;;29.20;46.60;;;;;;5033189;28;20239;-71
2022/07/06 12:39:14;;;;;;;3.97;1.50;;;29.20;48.40;;;;;;5032862;28;20798;-71
2022/07/06 12:41:50;;;;;;;2.30;1.50;;;29.10;48.50;;;;;;5033253;28;20173;-71
2022/07/06 12:44:23;;;;;;;5.60;1.80;;;28.90;48.20;;;;;;5032809;28;20174;-71
2022/07/06 12:46:50;;;;;;;1.58;1.30;;;28.70;48.20;;;;;;5033249;28;20174;-72
2022/07/06 12:49:17;;;;;;;1.75;1.60;;;28.50;48.80;;;;;;5032659;28;20214;-71
2022/07/06 12:51:53;;;;;;;2.35;1.45;;;28.50;48.80;;;;;;5032941;28;20190;-71